createdAt,value
2019-03-23T00:02:46.485Z,56.60
2019-03-23T00:05:49.584Z,54.30
2019-03-23T00:08:51.461Z,56.17
2019-03-23T00:11:53.345Z,55.90
2019-03-23T00:14:55.463Z,56.73
2019-03-23T00:17:57.568Z,58.53
2019-03-23T00:20:59.526Z,57.63
2019-03-23T00:24:01.377Z,60.33
2019-03-23T00:27:03.459Z,63.13
2019-03-23T00:30:08.235Z,62.93
2019-03-23T00:33:10.154Z,59.03
2019-03-23T00:36:12.062Z,60.83
2019-03-23T00:39:13.922Z,63.60
2019-03-23T00:42:15.790Z,72.77
2019-03-23T00:45:17.817Z,62.27
2019-03-23T00:48:19.696Z,76.80
2019-03-23T00:51:21.732Z,65.30
2019-03-23T00:54:23.667Z,61.20
2019-03-23T00:57:25.547Z,61.67
2019-03-23T01:00:27.497Z,61.97
2019-03-23T01:03:29.378Z,67.47
2019-03-23T01:06:31.274Z,70.97
2019-03-23T01:09:33.187Z,70.97
2019-03-23T01:12:35.061Z,70.27
2019-03-23T01:15:37.052Z,70.47
2019-03-23T01:18:39.016Z,70.13
2019-03-23T01:21:41.850Z,73.60
2019-03-23T01:24:43.787Z,67.80
2019-03-23T01:27:45.712Z,63.20
2019-03-23T01:30:47.549Z,68.30
2019-03-23T01:33:49.498Z,69.13
2019-03-23T01:36:51.326Z,71.67
2019-03-23T01:39:53.236Z,68.10
2019-03-23T01:42:55.986Z,70.63
2019-03-23T01:45:58.040Z,65.07
2019-03-23T01:48:59.862Z,66.50
2019-03-23T01:52:01.828Z,61.80
2019-03-23T01:55:05.399Z,60.80
2019-03-23T01:58:07.286Z,61.50
2019-03-23T02:01:09.170Z,60.73
2019-03-23T02:04:11.073Z,58.17
2019-03-23T02:07:14.003Z,59.63
2019-03-23T02:10:16.442Z,56.97
2019-03-23T02:13:18.254Z,61.53
2019-03-23T02:16:20.141Z,57.10
2019-03-23T02:19:22.124Z,58.50
2019-03-23T02:22:23.992Z,63.17
2019-03-23T02:25:25.884Z,62.40
2019-03-23T02:28:28.739Z,56.93
2019-03-23T02:31:30.740Z,56.57
2019-03-23T02:34:32.623Z,57.00
2019-03-23T02:37:34.506Z,56.17
2019-03-23T02:40:36.458Z,54.60
2019-03-23T02:43:39.713Z,53.50
2019-03-23T02:46:41.695Z,57.23
2019-03-23T02:49:43.640Z,52.50
2019-03-23T02:52:45.536Z,49.73
2019-03-23T02:55:47.578Z,48.90
2019-03-23T02:58:49.545Z,50.47
2019-03-23T03:01:52.147Z,53.07
2019-03-23T03:04:54.005Z,49.63
2019-03-23T03:07:55.930Z,52.10
2019-03-23T03:10:57.783Z,53.80
2019-03-23T03:13:59.694Z,49.97
2019-03-23T03:17:01.722Z,49.93
2019-03-23T03:20:06.379Z,49.23
2019-03-23T03:23:08.256Z,44.87
2019-03-23T03:26:10.113Z,48.83
2019-03-23T03:29:12.057Z,47.23
2019-03-23T03:32:13.911Z,46.17
2019-03-23T03:35:15.802Z,47.20
2019-03-23T03:38:18.899Z,55.57
2019-03-23T03:41:20.852Z,51.03
2019-03-23T03:44:22.734Z,49.07
2019-03-23T03:47:24.703Z,47.40
2019-03-23T03:50:26.608Z,45.63
2019-03-23T03:53:28.461Z,53.23
2019-03-23T03:56:30.339Z,50.20
2019-03-23T03:59:32.292Z,52.97
2019-03-23T04:02:34.155Z,45.80
2019-03-23T04:05:36.085Z,45.10
2019-03-23T04:08:37.945Z,45.37
2019-03-23T04:11:39.828Z,43.40
2019-03-23T04:14:41.764Z,46.87
2019-03-23T04:17:43.700Z,44.87
2019-03-23T04:20:45.665Z,42.67
2019-03-23T04:23:47.560Z,44.50
2019-03-23T04:26:49.388Z,49.17
2019-03-23T04:29:51.290Z,46.97
2019-03-23T04:32:53.175Z,47.43
2019-03-23T04:35:55.061Z,43.53
2019-03-23T04:38:56.946Z,56.23
2019-03-23T04:41:58.914Z,63.87
2019-03-23T04:45:00.817Z,54.87
2019-03-23T04:48:04.655Z,45.90
2019-03-23T04:51:06.507Z,44.27
2019-03-23T04:54:08.376Z,45.50
2019-03-23T04:57:10.280Z,45.73
2019-03-23T05:00:17.818Z,44.57
2019-03-23T05:03:19.683Z,45.17
2019-03-23T05:06:21.585Z,45.50
2019-03-23T05:09:23.456Z,45.53
2019-03-23T05:12:25.346Z,48.90
2019-03-23T05:15:27.291Z,46.70
2019-03-23T05:18:29.247Z,49.63
2019-03-23T05:21:31.192Z,41.30
2019-03-23T05:24:33.074Z,43.77
2019-03-23T05:27:34.970Z,44.33
2019-03-23T05:30:36.908Z,44.60
2019-03-23T05:33:38.957Z,48.00
2019-03-23T05:36:40.859Z,46.57
2019-03-23T05:39:42.979Z,47.90
2019-03-23T05:42:44.854Z,47.97
2019-03-23T05:45:47.023Z,47.63
2019-03-23T05:48:49.671Z,43.33
2019-03-23T05:51:51.668Z,45.67
2019-03-23T05:54:53.561Z,45.50
2019-03-23T05:57:56.060Z,43.50
2019-03-23T06:00:57.990Z,42.77
2019-03-23T06:03:59.879Z,47.63
2019-03-23T06:07:01.759Z,46.57
2019-03-23T06:10:05.823Z,45.70
2019-03-23T06:13:07.717Z,44.97
2019-03-23T06:16:09.690Z,43.20
2019-03-23T06:19:11.589Z,46.13
2019-03-23T06:22:13.599Z,45.83
2019-03-23T06:25:15.553Z,43.33
2019-03-23T06:28:17.522Z,48.73
2019-03-23T06:31:19.407Z,48.33
2019-03-23T06:34:21.296Z,48.13
2019-03-23T06:37:23.194Z,48.10
2019-03-23T06:40:25.052Z,47.93
2019-03-23T06:43:26.967Z,48.30
2019-03-23T06:46:29.019Z,52.23
2019-03-23T06:49:32.713Z,52.20
2019-03-23T06:52:36.702Z,50.40
2019-03-23T06:55:39.213Z,50.53
2019-03-23T06:58:42.978Z,48.17
2019-03-23T07:01:47.919Z,51.13
2019-03-23T07:04:49.985Z,49.30
2019-03-23T07:07:51.873Z,51.23
2019-03-23T07:10:53.771Z,47.67
2019-03-23T07:13:55.669Z,47.67
2019-03-23T07:16:57.722Z,48.20
2019-03-23T07:19:59.689Z,47.60
2019-03-23T07:23:01.655Z,45.80
2019-03-23T07:26:03.563Z,46.80
2019-03-23T07:29:05.501Z,41.83
2019-03-23T07:32:07.388Z,42.63
2019-03-23T07:35:09.325Z,40.97
2019-03-23T07:38:11.240Z,40.93
2019-03-23T07:41:13.146Z,37.00
2019-03-23T07:44:15.040Z,38.17
2019-03-23T07:47:16.864Z,37.20
2019-03-23T07:50:19.379Z,38.83
2019-03-23T07:53:21.300Z,37.43
2019-03-23T07:56:23.289Z,37.37
2019-03-23T07:59:25.330Z,37.20
2019-03-23T08:02:27.349Z,35.73
2019-03-23T08:05:29.362Z,33.53
2019-03-23T08:08:31.347Z,35.63
2019-03-23T08:11:33.257Z,38.43
2019-03-23T08:14:36.217Z,32.57
2019-03-23T08:17:38.381Z,34.17
2019-03-23T08:20:40.348Z,34.13
2019-03-23T08:23:42.451Z,33.80
2019-03-23T08:26:44.380Z,33.33
2019-03-23T08:29:46.334Z,34.43
2019-03-23T08:32:48.424Z,33.80
2019-03-23T08:35:50.308Z,31.67
2019-03-23T08:38:52.236Z,30.47
2019-03-23T08:41:54.219Z,30.23
2019-03-23T08:44:56.108Z,32.67
2019-03-23T08:47:58.094Z,33.70
2019-03-23T08:51:00.060Z,33.30
2019-03-23T08:54:01.996Z,32.20
2019-03-23T08:57:03.946Z,32.17
2019-03-23T09:00:06.791Z,33.93
2019-03-23T09:03:10.214Z,36.00
2019-03-23T09:06:12.134Z,33.37
2019-03-23T09:09:14.094Z,35.10
2019-03-23T09:12:16.085Z,35.33
2019-03-23T09:15:18.565Z,38.60
2019-03-23T09:18:20.453Z,35.77
2019-03-23T09:21:22.479Z,37.47
2019-03-23T09:24:24.474Z,33.97
2019-03-23T09:27:26.436Z,37.07
2019-03-23T09:30:28.286Z,35.67
2019-03-23T09:33:30.210Z,35.70
2019-03-23T09:36:32.110Z,32.40
2019-03-23T09:39:34.040Z,35.00
2019-03-23T09:42:35.909Z,33.33
2019-03-23T09:45:37.894Z,33.27
2019-03-23T09:48:39.839Z,34.53
2019-03-23T09:51:41.807Z,33.90
2019-03-23T09:54:43.722Z,34.67
2019-03-23T09:57:45.629Z,31.80
2019-03-23T10:00:47.520Z,32.93
2019-03-23T10:03:49.441Z,36.33
2019-03-23T10:06:51.353Z,34.67
2019-03-23T10:09:53.245Z,34.17
2019-03-23T10:12:55.134Z,36.67
2019-03-23T10:15:57.039Z,38.87
2019-03-23T10:18:58.918Z,38.87
2019-03-23T10:22:00.946Z,38.00
2019-03-23T10:25:05.073Z,36.23
2019-03-23T10:28:07.030Z,39.67
2019-03-23T10:31:08.908Z,37.93
2019-03-23T10:34:10.822Z,34.97
2019-03-23T10:37:12.723Z,37.00
2019-03-23T10:40:14.630Z,38.73
2019-03-23T10:43:16.560Z,39.87
2019-03-23T10:46:18.502Z,34.50
2019-03-23T10:49:20.372Z,38.37
2019-03-23T10:52:22.369Z,37.23
2019-03-23T10:55:24.312Z,36.97
2019-03-23T10:58:26.238Z,35.07
2019-03-23T11:01:28.170Z,34.63
2019-03-23T11:04:30.169Z,34.33
2019-03-23T11:07:32.079Z,36.23
2019-03-23T11:10:41.583Z,35.40
2019-03-23T11:13:37.873Z,35.03
2019-03-23T11:16:39.783Z,32.27
2019-03-23T11:19:41.734Z,32.70
2019-03-23T11:22:43.739Z,35.10
2019-03-23T11:25:45.789Z,30.13
2019-03-23T11:28:47.746Z,29.33
2019-03-23T11:31:49.706Z,32.33
2019-03-23T11:34:51.760Z,31.80
2019-03-23T11:37:54.042Z,31.23
2019-03-23T11:40:56.438Z,30.63
2019-03-23T11:43:58.427Z,32.90
2019-03-23T11:47:00.319Z,29.23
2019-03-23T11:50:03.698Z,29.77
2019-03-23T11:53:06.884Z,30.27
2019-03-23T11:56:08.830Z,31.30
2019-03-23T11:59:10.706Z,29.63
2019-03-23T12:02:12.668Z,28.80
2019-03-23T12:05:14.550Z,29.50
2019-03-23T12:08:17.162Z,30.67
2019-03-23T12:11:19.034Z,28.73
2019-03-23T12:14:20.947Z,28.93
2019-03-23T12:17:22.791Z,26.73
2019-03-23T12:20:24.749Z,26.83
2019-03-23T12:23:26.665Z,27.63
2019-03-23T12:26:28.704Z,26.23
2019-03-23T12:29:30.591Z,26.00
2019-03-23T12:32:32.486Z,24.23
2019-03-23T12:35:34.434Z,23.73
2019-03-23T12:38:36.397Z,23.83
2019-03-23T12:41:38.307Z,24.40
2019-03-23T12:44:40.241Z,23.40
2019-03-23T12:47:42.185Z,25.90
2019-03-23T12:50:45.583Z,23.90
2019-03-23T12:53:47.616Z,22.47
2019-03-23T12:56:49.549Z,24.03
2019-03-23T12:59:51.530Z,26.53
2019-03-23T13:02:53.434Z,23.43
2019-03-23T13:05:55.327Z,25.63
2019-03-23T13:08:57.286Z,22.83
2019-03-23T13:11:59.183Z,23.40
2019-03-23T13:15:01.124Z,23.07
2019-03-23T13:18:03.277Z,20.00
2019-03-23T13:21:05.316Z,21.50
2019-03-23T13:24:07.275Z,23.03
2019-03-23T13:27:09.299Z,22.53
2019-03-23T13:30:13.442Z,24.13
2019-03-23T13:33:15.317Z,24.70
2019-03-23T13:36:17.350Z,23.13
2019-03-23T13:39:19.235Z,24.20
2019-03-23T13:42:21.196Z,23.13
2019-03-23T13:45:23.120Z,23.67
2019-03-23T13:48:25.126Z,21.70
2019-03-23T13:51:28.764Z,25.07
2019-03-23T13:54:30.863Z,24.23
2019-03-23T13:57:32.729Z,23.63
2019-03-23T14:00:34.865Z,25.30
2019-03-23T14:03:36.783Z,23.33
2019-03-23T14:06:38.790Z,25.20
2019-03-23T14:09:40.642Z,26.60
2019-03-23T14:12:42.560Z,25.13
2019-03-23T14:15:44.488Z,23.00
2019-03-23T14:18:46.476Z,24.87
2019-03-23T14:21:48.445Z,25.70
2019-03-23T14:24:50.384Z,23.03
2019-03-23T14:27:52.380Z,24.23
2019-03-23T14:30:54.351Z,23.03
2019-03-23T14:33:56.268Z,24.50
2019-03-23T14:36:58.185Z,22.63
2019-03-23T14:40:00.047Z,23.20
2019-03-23T14:43:01.985Z,25.70
2019-03-23T14:46:03.936Z,23.90
2019-03-23T14:49:05.831Z,25.63
2019-03-23T14:52:07.826Z,23.40
2019-03-23T14:55:09.887Z,26.17
2019-03-23T14:58:11.803Z,24.23
2019-03-23T15:01:13.717Z,24.67
2019-03-23T15:04:15.657Z,23.43
2019-03-23T15:07:17.605Z,22.73
2019-03-23T15:10:19.506Z,24.23
2019-03-23T15:13:21.470Z,24.03
2019-03-23T15:16:23.378Z,26.33
2019-03-23T15:19:25.319Z,25.27
2019-03-23T15:22:27.215Z,22.50
2019-03-23T15:25:29.615Z,24.30
2019-03-23T15:28:31.648Z,23.43
2019-03-23T15:31:33.578Z,24.80
2019-03-23T15:34:35.524Z,24.87
2019-03-23T15:37:37.469Z,25.40
2019-03-23T15:40:39.395Z,24.97
2019-03-23T15:43:41.372Z,25.80
2019-03-23T15:46:43.255Z,24.83
2019-03-23T15:49:45.198Z,22.10
2019-03-23T15:52:47.116Z,25.43
2019-03-23T15:55:49.118Z,24.70
2019-03-23T15:58:51.023Z,24.63
2019-03-23T16:01:53.003Z,24.00
2019-03-23T16:04:54.943Z,26.10
2019-03-23T16:07:56.882Z,24.13
2019-03-23T16:10:58.853Z,22.07
2019-03-23T16:14:00.874Z,22.60
2019-03-23T16:17:02.786Z,23.17
2019-03-23T16:20:09.719Z,24.40
2019-03-23T16:23:11.661Z,25.97
2019-03-23T16:26:13.624Z,27.57
2019-03-23T16:29:15.711Z,27.37
2019-03-23T16:32:17.711Z,27.47
2019-03-23T16:35:19.610Z,27.47
2019-03-23T16:38:21.593Z,27.67
2019-03-23T16:41:23.496Z,28.40
2019-03-23T16:44:25.455Z,26.43
2019-03-23T16:47:29.108Z,24.00
2019-03-23T16:50:31.989Z,26.50
2019-03-23T16:53:33.958Z,24.67
2019-03-23T16:56:35.986Z,22.50
2019-03-23T16:59:37.911Z,25.63
2019-03-23T17:02:39.810Z,23.60
2019-03-23T17:05:41.778Z,23.73
2019-03-23T17:08:43.727Z,26.27
2019-03-23T17:11:45.618Z,26.20
2019-03-23T17:14:47.571Z,25.53
2019-03-23T17:17:49.515Z,27.13
2019-03-23T17:20:51.416Z,30.53
2019-03-23T17:23:53.311Z,26.13
2019-03-23T17:26:55.285Z,27.67
2019-03-23T17:29:57.484Z,26.27
2019-03-23T17:32:59.359Z,28.00
2019-03-23T17:36:01.297Z,27.57
2019-03-23T17:39:04.908Z,30.07
2019-03-23T17:42:07.819Z,29.80
2019-03-23T17:45:10.075Z,30.40
2019-03-23T17:48:12.058Z,32.40
2019-03-23T17:51:13.930Z,32.60
2019-03-23T17:54:15.903Z,34.13
2019-03-23T17:57:17.841Z,37.57
2019-03-23T18:00:19.780Z,40.17
2019-03-23T18:03:21.681Z,38.77
2019-03-23T18:06:23.594Z,37.10
2019-03-23T18:09:25.481Z,38.40
2019-03-23T18:12:27.437Z,39.67
2019-03-23T18:15:29.822Z,42.33
2019-03-23T18:18:31.812Z,52.40
2019-03-23T18:21:33.717Z,54.70
2019-03-23T18:24:35.624Z,57.13
2019-03-23T18:27:37.557Z,55.43
2019-03-23T18:30:40.628Z,55.30
2019-03-23T18:33:42.613Z,52.93
2019-03-23T18:36:44.725Z,65.07
2019-03-23T18:39:46.734Z,83.87
2019-03-23T18:42:48.608Z,91.57
2019-03-23T18:45:50.558Z,88.10
2019-03-23T18:48:52.504Z,76.53
2019-03-23T18:51:54.434Z,81.47
2019-03-23T18:54:56.345Z,87.07
2019-03-23T18:57:58.359Z,85.53
2019-03-23T19:01:00.312Z,78.97
2019-03-23T19:04:02.313Z,92.67
2019-03-23T19:07:04.209Z,103.70
2019-03-23T19:10:06.427Z,105.77
2019-03-23T19:13:08.415Z,103.60
2019-03-23T19:16:10.304Z,103.90
2019-03-23T19:19:12.501Z,88.57
2019-03-23T19:22:14.440Z,80.23
2019-03-23T19:25:18.528Z,68.67
2019-03-23T19:28:20.245Z,67.93
2019-03-23T19:31:22.968Z,67.43
2019-03-23T19:34:27.114Z,71.90
2019-03-23T19:37:29.064Z,68.37
2019-03-23T19:40:31.006Z,62.87
2019-03-23T19:43:33.297Z,53.97
2019-03-23T19:46:35.239Z,47.87
2019-03-23T19:49:37.205Z,38.77
2019-03-23T19:52:39.409Z,34.87
2019-03-23T19:55:48.857Z,30.73
2019-03-23T19:58:50.810Z,23.23
2019-03-23T20:01:52.743Z,30.27
2019-03-23T20:04:54.635Z,37.93
2019-03-23T20:07:56.550Z,44.47
2019-03-23T20:10:58.448Z,45.77
2019-03-23T20:14:00.437Z,45.23
2019-03-23T20:17:02.323Z,45.03
2019-03-23T20:20:06.184Z,46.80
2019-03-23T20:23:10.473Z,47.30
2019-03-23T20:26:12.343Z,48.43
2019-03-23T20:29:14.373Z,47.73
2019-03-23T20:32:16.379Z,45.80
2019-03-23T20:35:18.359Z,50.07
2019-03-23T20:38:20.333Z,49.20
2019-03-23T20:41:22.209Z,47.03
2019-03-23T20:44:24.092Z,50.83
2019-03-23T20:47:26.028Z,46.87
2019-03-23T20:50:29.800Z,42.20
2019-03-23T20:53:32.195Z,39.63
2019-03-23T20:56:34.164Z,38.93
2019-03-23T20:59:36.118Z,40.20
2019-03-23T21:02:38.087Z,39.30
2019-03-23T21:05:39.994Z,37.10
2019-03-23T21:08:41.954Z,37.43
2019-03-23T21:11:43.909Z,30.40
2019-03-23T21:14:45.825Z,31.73
2019-03-23T21:17:51.446Z,31.83
2019-03-23T21:20:51.640Z,29.07
2019-03-23T21:23:53.587Z,29.90
2019-03-23T21:26:55.472Z,28.17
2019-03-23T21:29:57.397Z,28.23
2019-03-23T21:32:59.511Z,27.30
2019-03-23T21:36:01.417Z,25.90
2019-03-23T21:39:05.443Z,26.57
2019-03-23T21:42:08.504Z,27.23
2019-03-23T21:45:10.874Z,25.40
2019-03-23T21:48:12.875Z,25.27
2019-03-23T21:51:14.764Z,24.83
2019-03-23T21:54:16.745Z,25.53
2019-03-23T21:57:18.643Z,25.90
2019-03-23T22:00:29.417Z,26.63
2019-03-23T22:03:31.334Z,26.40
2019-03-23T22:06:33.242Z,23.67
2019-03-23T22:09:35.106Z,24.63
2019-03-23T22:12:37.006Z,25.20
2019-03-23T22:15:38.942Z,24.67
2019-03-23T22:18:40.910Z,24.37
2019-03-23T22:21:42.856Z,23.10
2019-03-23T22:24:44.782Z,24.10
2019-03-23T22:27:46.809Z,25.30
2019-03-23T22:30:48.788Z,22.33
2019-03-23T22:33:50.789Z,22.63
2019-03-23T22:36:52.738Z,24.33
2019-03-23T22:39:54.679Z,22.87
2019-03-23T22:42:56.745Z,23.20
2019-03-23T22:45:58.666Z,23.10
2019-03-23T22:49:00.619Z,24.07
2019-03-23T22:52:02.535Z,25.60
2019-03-23T22:55:05.796Z,27.30
2019-03-23T22:58:07.700Z,25.87
2019-03-23T23:01:10.481Z,28.43
2019-03-23T23:04:12.343Z,26.90
2019-03-23T23:07:14.318Z,28.47
2019-03-23T23:10:16.174Z,32.73
2019-03-23T23:13:18.062Z,29.73
2019-03-23T23:16:19.975Z,32.60
2019-03-23T23:19:21.930Z,28.77
2019-03-23T23:22:23.823Z,31.33
2019-03-23T23:25:25.759Z,30.77
2019-03-23T23:28:27.711Z,33.33
2019-03-23T23:31:30.877Z,36.67
2019-03-23T23:34:32.867Z,33.40
2019-03-23T23:37:34.900Z,37.07
2019-03-23T23:40:36.819Z,33.40
2019-03-23T23:43:38.766Z,36.07
2019-03-23T23:46:41.542Z,36.60
2019-03-23T23:49:44.819Z,37.73
2019-03-23T23:52:46.715Z,39.43
2019-03-23T23:55:48.650Z,40.47
2019-03-23T23:58:50.522Z,38.97
